Aktualne dane pomiarowe

Uwaga, wersja testowa! Automatyczne pobieranie danych za pomocą narzędzi lub skryptów to umożliwiających jest zabronione.

Dane meteo z obszaru Polski uzyskane na podstawie depesz SYNOP pobieranych co godzinę z NWS. Najedź myszką na symbol przedstawiony w tabeli, aby uzyskać informacje co do jego znaczenia. Prosimy pamiętać, że to testowa wersja strony, która jeszcze nie jest ukończona. Stworzono również jest krótki FAQ dotyczący korzystania z tej podstrony Anomalie temperatury w chwili obecnej odniesione są do okresu referencyjnego 1951-2016. Okres ten będzie później zmieniony na 1981-2010. Kliknij ikonę aby pobrać plik CSV. Kliknij ikonę aby wygenerować mapę synoptyczną dla danego terminu.

Wybierz Datę:    

        

Łask (12454)

Dane terminowe dla wybranej stacji. Kliknij datę, aby otrzymać dane z tego terminu dla wszystkich stacji.

TemperaturaZachmurzenieWiatrCiśnienieOpadyPogoda
 Data t td wb tx tn tg rh  Nt Nl Cl Cm Ch ws wd g1 g2 wx mslp ppp ch 24h 12h t ww ww w1 w2  
2019-07-20 23:00:00 18.4 13.5 15.2--- 7335.0wx-3wx---1015.5 993.2 0.1---------
2019-07-20 22:00:00 19.5 13.2 15.4--- 6735.0wx-3wx---1015.5 993.3 0.6---------
2019-07-20 21:00:00 20.9 13.1 16.0--- 6135.0wx-wx3wx---1015.4 993.2 0.6---------
2019-07-20 20:00:00 21.7 12.5 16.0--- 5650.0wx-wx2wx---1015.2 993.1 0.5---------
2019-07-20 19:00:00 23.0 12.6 16.6--- 5250.0wxwxwxwx1wx---1014.7 992.7 -0.1---------
2019-07-20 18:00:00 25.9 13.6 18.2 29.0 19.4- 4750.0wxwxwxwx1wx---1014.4 992.6 -0.3- 0.012------
2019-07-20 17:00:00 28.0 11.0 17.8--- 3550.0wxwxwxwx1wx---1014.2 992.6 -0.5---------
2019-07-20 16:00:00 28.2 11.0 17.9--- 3445.0wxwxwxwx2wx---1014.4 992.8 -0.5---------
2019-07-20 15:00:00 28.0 11.8 18.2--- 3755.0wxwxwxwx2wx---1014.5 992.9 -0.7---------
2019-07-20 14:00:00 28.9 12.5 18.9--- 3655.0wxwxwxwx3wx---1014.7 993.2 -0.7---------
2019-07-20 13:00:00 27.2 11.7 17.8--- 3855.0wxwxwxwx1wx---1015.0 993.3 -0.8---------
2019-07-20 12:00:00 26.6 12.0 17.7--- 4055.0wxwxwxwx3wx---1015.3 993.6 -0.6---------
2019-07-20 11:00:00 25.5 13.3 17.9--- 4750.0wxwxwxwx3wx---1015.7 993.9 -0.3---------
2019-07-20 10:00:00 23.9 14.6 18.0--- 5640.0wxwxwxwx3wx---1016.0 994.1 0.0---------
2019-07-20 09:00:00 24.6 14.9 18.4--- 5540.0wxwxwxwxwx2wx---1016.1 994.2 0.3---------
2019-07-20 08:00:00 22.5 15.4 17.8--- 6430.0wx-wxwx2wx---1016.2 994.2 0.4---------
2019-07-20 07:00:00 20.7 15.5 17.2--- 7227.0wx-wx1wx---1016.3 994.1 0.6---------
2019-07-20 06:00:00 19.6 15.9 17.1 20.4 15.5 14 7925.0wx-wx2wx---1016.2 993.9 0.6 2.9 0.812------
2019-07-20 05:00:00 17.5 15.8 16.3--- 9018.0wx-2wx---1016.2 993.8 0.7---------
2019-07-20 04:00:00 16.1 15.1 15.4--- 9416.0wx-wx1wx---1016.1 993.5 0.8---------
2019-07-20 03:00:00 15.7 14.9 15.1--- 9516.0wx-1wx---1015.9 993.3 0.2---------
2019-07-20 02:00:00 15.9 15.1 15.3--- 9517.0wx-0----1015.6 993.1 0.2---------
2019-07-20 01:00:00 16.5 14.8 15.3--- 9024.0wx-0----1015.3 992.8 -0.1---------
2019-07-20 00:00:00 16.1 14.6 15.0--- 9123.0wx-1wx---1015.6 993.1 0.2- 0.86------
2019-07-19 23:00:00 16.7 14.9 15.4--- 8927.0wx-0----1015.3 992.9 0.3---------
2019-07-19 22:00:00 17.1 15.3 15.8--- 8930.0wx-0----1015.3 992.9 0.5---------
2019-07-19 21:00:00 17.1 15.6 16.0--- 9128.0wx-wx1----1015.3 992.8 0.6---------
2019-07-19 20:00:00 17.3 15.8 16.2--- 9128.0wx-wx0----1015.0 992.6 0.7---------
2019-07-19 19:00:00 17.4 16.2 16.5--- 9335.0wx-wx1wx---1014.8 992.4 0.5---wx-w1w2--
2019-07-19 18:00:00 20.4 13.7 16.1 28.4 17.0- 6550.0wx-wxwx2wx---1014.4 992.2 0.6---------
2019-07-19 17:00:00 21.8 14.1 16.8--- 6245.0wx-wxwx4wx---1014.0 991.9 0.1---------
2019-07-19 16:00:00 21.8 14.3 17.0--- 6255.0wx-wx3wx---1014.0 991.9 -0.7---------
2019-07-19 15:00:00 23.8 13.5 17.3--- 5365.0wx-wx2wx---1013.6 991.7 0.9---------
2019-07-19 14:00:00 20.3 16.4 17.6--- 7855.0wxwxwxwx2wx---1014.0 991.8 0.8---wx-w1--
2019-07-19 13:00:00 17.7 14.1 15.3--- 7917.0wxwxwxwx6wx-14-1015.0 992.6 1.3---wx---
2019-07-19 12:00:00 26.8 6.8 15.6--- 2855.0wxwxwxwxwx1wx-8-1012.5 990.8 -0.8- 0.06------
2019-07-19 11:00:00 27.8 8.2 16.5--- 2950.0wxwxwxwx3wx---1012.7 991.1 -0.6---------
2019-07-19 10:00:00 27.3 7.5 16.0--- 2960.0wxwxwxwxwx3wx---1013.1 991.4 -0.4---------
2019-07-19 09:00:00 26.2 7.5 15.6--- 3165.0wxwxwxwxwx5wx---1013.4 991.6 -0.2---------
2019-07-19 08:00:00 25.6 7.9 15.5--- 3360.0wx-wx2wx---1013.5 991.7 0.0---------
2019-07-19 07:00:00 23.6 8.2 14.8--- 3745.0wx-wxwx1wx---1013.8 991.8 0.1---------
2019-07-19 06:00:00 19.5 9.4 13.5 22.6 11.1 8 5235.0wx-wxwx1----1014.0 991.7 0.2 0.0 0.012------
2019-07-19 05:00:00 14.9 8.8 11.2--- 6730.0wx-wx1----1014.3 991.6 0.2---------
2019-07-19 04:00:00 12.6 8.1 9.8--- 7430.0wx-wx1wx---1014.5 991.7 0.2---------
2019-07-19 03:00:00 11.4 7.3 8.9--- 7640.0wx-2wx---1014.4 991.5 0.1---------
2019-07-19 02:00:00 11.6 7.3 8.9--- 7540.0wx-2wx---1014.3 991.4 0.0---------
2019-07-19 01:00:00 12.4 7.5 9.4--- 7245.0wx-2wx---1014.3 991.4 0.2---------
2019-07-19 00:00:00 13.7 7.6 10.1--- 6750.0wx-1wx---1014.1 991.4 0.4- 0.06------
1.1 ms

 

Print Friendly, PDF & Email